sensor_id;sensor_type;location;lat;lon;timestamp;pressure;altitude;pressure_sealevel;temperature;humidity
12468;BME280;57850;52.922;6.256;2023-05-27T00:02:05;103439.50;;;10.59;100.00
12468;BME280;57850;52.922;6.256;2023-05-27T00:04:32;103449.81;;;10.41;100.00
12468;BME280;57850;52.922;6.256;2023-05-27T00:07:00;103448.81;;;10.17;100.00
12468;BME280;57850;52.922;6.256;2023-05-27T00:09:26;103439.00;;;9.91;100.00
12468;BME280;57850;52.922;6.256;2023-05-27T00:11:53;103425.88;;;9.80;100.00
12468;BME280;57850;52.922;6.256;2023-05-27T00:14:19;103419.06;;;9.97;100.00
12468;BME280;57850;52.922;6.256;2023-05-27T00:16:47;103420.09;;;10.14;100.00
12468;BME280;57850;52.922;6.256;2023-05-27T00:19:15;103435.56;;;9.96;100.00
12468;BME280;57850;52.922;6.256;2023-05-27T00:21:42;103431.22;;;9.95;100.00
12468;BME280;57850;52.922;6.256;2023-05-27T00:24:11;103436.84;;;9.47;100.00
12468;BME280;57850;52.922;6.256;2023-05-27T00:26:37;103417.63;;;9.35;100.00
12468;BME280;57850;52.922;6.256;2023-05-27T00:29:04;103401.16;;;9.39;100.00
12468;BME280;57850;52.922;6.256;2023-05-27T00:31:30;103393.59;;;9.66;100.00
12468;BME280;57850;52.922;6.256;2023-05-27T00:33:57;103411.97;;;9.80;100.00
12468;BME280;57850;52.922;6.256;2023-05-27T00:36:23;103409.28;;;9.71;100.00
12468;BME280;57850;52.922;6.256;2023-05-27T00:38:50;103409.19;;;9.63;100.00
12468;BME280;57850;52.922;6.256;2023-05-27T00:41:18;103407.47;;;9.65;100.00
12468;BME280;57850;52.922;6.256;2023-05-27T00:43:45;103410.22;;;9.77;100.00
12468;BME280;57850;52.922;6.256;2023-05-27T00:46:11;103411.91;;;9.75;100.00
12468;BME280;57850;52.922;6.256;2023-05-27T00:48:38;103413.69;;;9.79;100.00
12468;BME280;57850;52.922;6.256;2023-05-27T00:51:04;103407.69;;;9.89;100.00
12468;BME280;57850;52.922;6.256;2023-05-27T00:53:35;103412.00;;;9.87;100.00
12468;BME280;57850;52.922;6.256;2023-05-27T00:56:03;103414.66;;;9.93;100.00
12468;BME280;57850;52.922;6.256;2023-05-27T00:58:31;103419.78;;;9.80;100.00
12468;BME280;57850;52.922;6.256;2023-05-27T01:00:58;103424.81;;;9.60;100.00
12468;BME280;57850;52.922;6.256;2023-05-27T01:03:25;103433.88;;;9.12;100.00
12468;BME280;57850;52.922;6.256;2023-05-27T01:06:02;103427.59;;;8.97;100.00
12468;BME280;57850;52.922;6.256;2023-05-27T01:08:34;103429.38;;;8.98;100.00
12468;BME280;57850;52.922;6.256;2023-05-27T01:11:04;103444.72;;;8.78;100.00
12468;BME280;57850;52.922;6.256;2023-05-27T01:13:39;103435.34;;;8.91;100.00
12468;BME280;57850;52.922;6.256;2023-05-27T01:16:11;103431.22;;;9.08;100.00
12468;BME280;57850;52.922;6.256;2023-05-27T01:18:39;103427.94;;;9.27;100.00
12468;BME280;57850;52.922;6.256;2023-05-27T01:21:10;103439.06;;;9.12;100.00
12468;BME280;57850;52.922;6.256;2023-05-27T01:23:41;103442.25;;;8.86;100.00
12468;BME280;57850;52.922;6.256;2023-05-27T01:26:07;103426.63;;;8.87;100.00
12468;BME280;57850;52.922;6.256;2023-05-27T01:28:34;103409.66;;;9.20;100.00
12468;BME280;57850;52.922;6.256;2023-05-27T01:31:06;103414.72;;;9.07;100.00
12468;BME280;57850;52.922;6.256;2023-05-27T01:33:37;103408.94;;;9.36;100.00
12468;BME280;57850;52.922;6.256;2023-05-27T01:36:06;103413.28;;;9.37;100.00
12468;BME280;57850;52.922;6.256;2023-05-27T01:38:36;103403.91;;;9.54;100.00
12468;BME280;57850;52.922;6.256;2023-05-27T01:41:05;103405.63;;;9.50;100.00
12468;BME280;57850;52.922;6.256;2023-05-27T01:43:32;103405.50;;;9.40;100.00
12468;BME280;57850;52.922;6.256;2023-05-27T01:45:59;103402.03;;;9.39;100.00
12468;BME280;57850;52.922;6.256;2023-05-27T01:48:26;103399.41;;;9.38;100.00
12468;BME280;57850;52.922;6.256;2023-05-27T01:50:52;103397.56;;;9.28;100.00
12468;BME280;57850;52.922;6.256;2023-05-27T01:53:19;103391.47;;;9.27;100.00
12468;BME280;57850;52.922;6.256;2023-05-27T01:55:45;103434.13;;;8.63;100.00
12468;BME280;57850;52.922;6.256;2023-05-27T01:58:13;103429.47;;;8.41;100.00
12468;BME280;57850;52.922;6.256;2023-05-27T02:00:40;103400.28;;;8.65;100.00
12468;BME280;57850;52.922;6.256;2023-05-27T02:03:06;103397.69;;;8.63;100.00
12468;BME280;57850;52.922;6.256;2023-05-27T02:05:33;103402.94;;;8.66;100.00
12468;BME280;57850;52.922;6.256;2023-05-27T02:08:01;103395.09;;;8.63;100.00
12468;BME280;57850;52.922;6.256;2023-05-27T02:10:27;103396.03;;;8.71;100.00
12468;BME280;57850;52.922;6.256;2023-05-27T02:12:54;103391.69;;;8.69;100.00
12468;BME280;57850;52.922;6.256;2023-05-27T02:15:22;103389.19;;;8.76;100.00
12468;BME280;57850;52.922;6.256;2023-05-27T02:17:49;103374.59;;;8.90;100.00
12468;BME280;57850;52.922;6.256;2023-05-27T02:20:20;103389.00;;;8.63;100.00
12468;BME280;57850;52.922;6.256;2023-05-27T02:22:46;103383.78;;;8.63;100.00
12468;BME280;57850;52.922;6.256;2023-05-27T02:25:13;103381.31;;;8.72;100.00
12468;BME280;57850;52.922;6.256;2023-05-27T02:27:40;103382.03;;;8.61;100.00
12468;BME280;57850;52.922;6.256;2023-05-27T02:30:08;103394.13;;;8.55;100.00
12468;BME280;57850;52.922;6.256;2023-05-27T02:32:36;103392.44;;;8.60;100.00
12468;BME280;57850;52.922;6.256;2023-05-27T02:35:03;103406.38;;;8.65;100.00
12468;BME280;57850;52.922;6.256;2023-05-27T02:37:30;103429.09;;;8.17;100.00
12468;BME280;57850;52.922;6.256;2023-05-27T02:39:56;103432.38;;;8.06;100.00
12468;BME280;57850;52.922;6.256;2023-05-27T02:42:23;103408.28;;;8.18;100.00
12468;BME280;57850;52.922;6.256;2023-05-27T02:44:49;103398.09;;;8.30;100.00
12468;BME280;57850;52.922;6.256;2023-05-27T02:47:16;103393.00;;;8.38;100.00
12468;BME280;57850;52.922;6.256;2023-05-27T02:49:43;103390.44;;;8.41;100.00
12468;BME280;57850;52.922;6.256;2023-05-27T02:52:10;103393.13;;;8.45;100.00
12468;BME280;57850;52.922;6.256;2023-05-27T02:54:36;103403.28;;;8.29;100.00
12468;BME280;57850;52.922;6.256;2023-05-27T02:57:03;103383.66;;;8.50;100.00
12468;BME280;57850;52.922;6.256;2023-05-27T02:59:30;103385.13;;;8.32;100.00
12468;BME280;57850;52.922;6.256;2023-05-27T03:01:56;103380.59;;;8.20;100.00
12468;BME280;57850;52.922;6.256;2023-05-27T03:04:23;103391.63;;;8.05;100.00
12468;BME280;57850;52.922;6.256;2023-05-27T03:06:51;103363.19;;;8.16;100.00
12468;BME280;57850;52.922;6.256;2023-05-27T03:09:17;103349.63;;;8.37;100.00
12468;BME280;57850;52.922;6.256;2023-05-27T03:11:43;103355.81;;;8.45;100.00
12468;BME280;57850;52.922;6.256;2023-05-27T03:14:10;103356.50;;;8.32;100.00
12468;BME280;57850;52.922;6.256;2023-05-27T03:16:36;103349.75;;;8.46;100.00
12468;BME280;57850;52.922;6.256;2023-05-27T03:19:03;103345.78;;;8.75;100.00
12468;BME280;57850;52.922;6.256;2023-05-27T03:21:30;103346.34;;;8.50;100.00
12468;BME280;57850;52.922;6.256;2023-05-27T03:23:58;103334.44;;;8.69;100.00
12468;BME280;57850;52.922;6.256;2023-05-27T03:26:24;103332.97;;;8.92;100.00
12468;BME280;57850;52.922;6.256;2023-05-27T03:28:53;103353.63;;;8.77;100.00
12468;BME280;57850;52.922;6.256;2023-05-27T03:31:20;103357.84;;;8.67;100.00
12468;BME280;57850;52.922;6.256;2023-05-27T03:33:46;103345.06;;;8.88;100.00
12468;BME280;57850;52.922;6.256;2023-05-27T03:36:13;103328.78;;;9.09;100.00
12468;BME280;57850;52.922;6.256;2023-05-27T03:38:39;103321.09;;;9.21;100.00
12468;BME280;57850;52.922;6.256;2023-05-27T03:41:07;103311.66;;;9.37;100.00
12468;BME280;57850;52.922;6.256;2023-05-27T03:43:34;103314.31;;;9.40;100.00
12468;BME280;57850;52.922;6.256;2023-05-27T03:46:00;103340.94;;;9.08;100.00
12468;BME280;57850;52.922;6.256;2023-05-27T03:48:27;103364.81;;;8.71;100.00
12468;BME280;57850;52.922;6.256;2023-05-27T03:50:53;103363.81;;;8.60;100.00
12468;BME280;57850;52.922;6.256;2023-05-27T03:53:20;103357.25;;;8.89;100.00
12468;BME280;57850;52.922;6.256;2023-05-27T03:55:47;103346.75;;;8.85;100.00
12468;BME280;57850;52.922;6.256;2023-05-27T03:58:14;103323.94;;;8.61;100.00
12468;BME280;57850;52.922;6.256;2023-05-27T04:00:41;103310.41;;;8.92;100.00
12468;BME280;57850;52.922;6.256;2023-05-27T04:03:08;103317.31;;;8.89;100.00
12468;BME280;57850;52.922;6.256;2023-05-27T04:05:35;103305.03;;;8.79;100.00
12468;BME280;57850;52.922;6.256;2023-05-27T04:08:02;103312.19;;;8.98;100.00
12468;BME280;57850;52.922;6.256;2023-05-27T04:10:29;103301.88;;;9.07;100.00
12468;BME280;57850;52.922;6.256;2023-05-27T04:12:56;103305.44;;;9.17;100.00
12468;BME280;57850;52.922;6.256;2023-05-27T04:15:24;103309.56;;;8.96;100.00
12468;BME280;57850;52.922;6.256;2023-05-27T04:17:51;103293.06;;;8.94;100.00
12468;BME280;57850;52.922;6.256;2023-05-27T04:20:17;103283.44;;;8.87;100.00
12468;BME280;57850;52.922;6.256;2023-05-27T04:22:44;103263.72;;;9.13;100.00
12468;BME280;57850;52.922;6.256;2023-05-27T04:25:10;103277.69;;;9.22;100.00
12468;BME280;57850;52.922;6.256;2023-05-27T04:27:37;103283.84;;;9.30;100.00
12468;BME280;57850;52.922;6.256;2023-05-27T04:30:04;103285.66;;;9.41;100.00
12468;BME280;57850;52.922;6.256;2023-05-27T04:32:32;103284.84;;;9.50;100.00
12468;BME280;57850;52.922;6.256;2023-05-27T04:35:04;103287.47;;;9.50;100.00
12468;BME280;57850;52.922;6.256;2023-05-27T04:37:31;103289.16;;;9.46;100.00
12468;BME280;57850;52.922;6.256;2023-05-27T04:39:57;103278.84;;;9.60;100.00
12468;BME280;57850;52.922;6.256;2023-05-27T04:42:24;103270.31;;;9.82;100.00
12468;BME280;57850;52.922;6.256;2023-05-27T04:44:50;103269.50;;;9.89;100.00
12468;BME280;57850;52.922;6.256;2023-05-27T04:47:17;103256.66;;;10.21;100.00
12468;BME280;57850;52.922;6.256;2023-05-27T04:49:45;103246.28;;;10.50;100.00
12468;BME280;57850;52.922;6.256;2023-05-27T04:52:11;103245.44;;;10.55;100.00
12468;BME280;57850;52.922;6.256;2023-05-27T04:54:38;103239.38;;;10.58;100.00
12468;BME280;57850;52.922;6.256;2023-05-27T04:57:04;103232.41;;;10.67;100.00
12468;BME280;57850;52.922;6.256;2023-05-27T04:59:31;103214.13;;;10.87;100.00
12468;BME280;57850;52.922;6.256;2023-05-27T05:02:12;103205.44;;;11.12;100.00
12468;BME280;57850;52.922;6.256;2023-05-27T05:04:48;103204.56;;;11.35;100.00
12468;BME280;57850;52.922;6.256;2023-05-27T05:07:16;103211.53;;;11.40;100.00
12468;BME280;57850;52.922;6.256;2023-05-27T05:09:43;103208.00;;;11.55;100.00
12468;BME280;57850;52.922;6.256;2023-05-27T05:12:09;103205.41;;;11.49;100.00
12468;BME280;57850;52.922;6.256;2023-05-27T05:14:35;103194.94;;;11.50;100.00
12468;BME280;57850;52.922;6.256;2023-05-27T05:17:02;103204.47;;;11.69;100.00
12468;BME280;57850;52.922;6.256;2023-05-27T05:19:29;103193.13;;;11.86;100.00
12468;BME280;57850;52.922;6.256;2023-05-27T05:21:57;103220.13;;;11.88;100.00
12468;BME280;57850;52.922;6.256;2023-05-27T05:24:23;103223.56;;;12.08;100.00
12468;BME280;57850;52.922;6.256;2023-05-27T05:26:50;103217.41;;;12.21;100.00
12468;BME280;57850;52.922;6.256;2023-05-27T05:29:16;103211.22;;;12.35;100.00
12468;BME280;57850;52.922;6.256;2023-05-27T05:31:42;103219.88;;;12.47;100.00
12468;BME280;57850;52.922;6.256;2023-05-27T05:34:10;103209.28;;;12.63;100.00
12468;BME280;57850;52.922;6.256;2023-05-27T05:36:37;103220.69;;;12.53;100.00
12468;BME280;57850;52.922;6.256;2023-05-27T05:39:05;103209.47;;;12.36;100.00
12468;BME280;57850;52.922;6.256;2023-05-27T05:41:31;103199.84;;;12.43;100.00
12468;BME280;57850;52.922;6.256;2023-05-27T05:43:59;103203.31;;;12.43;100.00
12468;BME280;57850;52.922;6.256;2023-05-27T05:46:25;103196.34;;;12.38;100.00
12468;BME280;57850;52.922;6.256;2023-05-27T05:48:52;103199.84;;;12.40;100.00
12468;BME280;57850;52.922;6.256;2023-05-27T05:51:18;103195.47;;;12.43;100.00
12468;BME280;57850;52.922;6.256;2023-05-27T05:53:45;103196.31;;;12.50;100.00
12468;BME280;57850;52.922;6.256;2023-05-27T05:56:13;103191.88;;;12.56;100.00
12468;BME280;57850;52.922;6.256;2023-05-27T05:58:39;103190.06;;;12.66;100.00
12468;BME280;57850;52.922;6.256;2023-05-27T06:01:06;103192.59;;;12.75;100.00
12468;BME280;57850;52.922;6.256;2023-05-27T06:03:32;103188.25;;;12.75;100.00
12468;BME280;57850;52.922;6.256;2023-05-27T06:05:59;103185.53;;;12.86;100.00
12468;BME280;57850;52.922;6.256;2023-05-27T06:08:25;103183.75;;;12.93;100.00
12468;BME280;57850;52.922;6.256;2023-05-27T06:10:52;103181.03;;;13.09;100.00
12468;BME280;57850;52.922;6.256;2023-05-27T06:13:20;103183.56;;;13.17;100.00
12468;BME280;57850;52.922;6.256;2023-05-27T06:15:46;103190.47;;;13.25;100.00
12468;BME280;57850;52.922;6.256;2023-05-27T06:18:13;103196.56;;;13.27;100.00
12468;BME280;57850;52.922;6.256;2023-05-27T06:20:40;103198.28;;;13.28;100.00
12468;BME280;57850;52.922;6.256;2023-05-27T06:23:06;103202.50;;;13.45;100.00
12468;BME280;57850;52.922;6.256;2023-05-27T06:25:33;103195.34;;;13.60;100.00
12468;BME280;57850;52.922;6.256;2023-05-27T06:27:59;103185.63;;;13.70;100.00
12468;BME280;57850;52.922;6.256;2023-05-27T06:30:27;103210.88;;;13.80;100.00
12468;BME280;57850;52.922;6.256;2023-05-27T06:32:55;103212.53;;;13.85;100.00
12468;BME280;57850;52.922;6.256;2023-05-27T06:35:21;103202.72;;;14.01;100.00
12468;BME280;57850;52.922;6.256;2023-05-27T06:37:48;103214.78;;;14.19;100.00
12468;BME280;57850;52.922;6.256;2023-05-27T06:40:14;103214.50;;;14.40;100.00
12468;BME280;57850;52.922;6.256;2023-05-27T06:42:42;103213.72;;;14.29;100.00
12468;BME280;57850;52.922;6.256;2023-05-27T06:45:09;103207.59;;;14.31;100.00
12468;BME280;57850;52.922;6.256;2023-05-27T06:47:37;103199.50;;;14.48;100.00
12468;BME280;57850;52.922;6.256;2023-05-27T06:50:05;103212.53;;;14.54;100.00
12468;BME280;57850;52.922;6.256;2023-05-27T06:52:31;103211.41;;;14.70;100.00
12468;BME280;57850;52.922;6.256;2023-05-27T06:54:58;103205.28;;;14.70;100.00
12468;BME280;57850;52.922;6.256;2023-05-27T06:57:24;103203.19;;;14.93;100.00
12468;BME280;57850;52.922;6.256;2023-05-27T06:59:51;103201.06;;;15.13;100.00
12468;BME280;57850;52.922;6.256;2023-05-27T07:02:17;103214.75;;;15.33;100.00
12468;BME280;57850;52.922;6.256;2023-05-27T07:04:45;103210.53;;;15.25;100.00
12468;BME280;57850;52.922;6.256;2023-05-27T07:07:11;103210.25;;;15.38;100.00
12468;BME280;57850;52.922;6.256;2023-05-27T07:09:38;103217.13;;;15.48;100.00
12468;BME280;57850;52.922;6.256;2023-05-27T07:12:05;103219.56;;;15.59;100.00
12468;BME280;57850;52.922;6.256;2023-05-27T07:14:32;103218.22;;;15.83;100.00
12468;BME280;57850;52.922;6.256;2023-05-27T07:16:59;103213.97;;;16.17;100.00
12468;BME280;57850;52.922;6.256;2023-05-27T07:19:25;103215.53;;;16.26;100.00
12468;BME280;57850;52.922;6.256;2023-05-27T07:21:53;103213.03;;;16.21;100.00
12468;BME280;57850;52.922;6.256;2023-05-27T07:24:20;103219.25;;;16.17;100.00
12468;BME280;57850;52.922;6.256;2023-05-27T07:26:46;103225.09;;;15.90;100.00
12468;BME280;57850;52.922;6.256;2023-05-27T07:29:13;103212.75;;;16.33;100.00
12468;BME280;57850;52.922;6.256;2023-05-27T07:31:39;103205.84;;;16.68;100.00
12468;BME280;57850;52.922;6.256;2023-05-27T07:34:06;103203.44;;;16.94;100.00
12468;BME280;57850;52.922;6.256;2023-05-27T07:36:32;103228.34;;;16.02;100.00
12468;BME280;57850;52.922;6.256;2023-05-27T07:39:00;103230.44;;;15.87;100.00
12468;BME280;57850;52.922;6.256;2023-05-27T07:41:27;103219.97;;;16.25;100.00
12468;BME280;57850;52.922;6.256;2023-05-27T07:43:54;103202.66;;;16.90;100.00
12468;BME280;57850;52.922;6.256;2023-05-27T07:46:22;103202.50;;;16.96;100.00
12468;BME280;57850;52.922;6.256;2023-05-27T07:48:49;103192.22;;;17.20;100.00
12468;BME280;57850;52.922;6.256;2023-05-27T07:51:16;103194.59;;;16.95;100.00
12468;BME280;57850;52.922;6.256;2023-05-27T07:53:42;103184.06;;;17.29;100.00
12468;BME280;57850;52.922;6.256;2023-05-27T07:56:10;103165.88;;;17.50;100.00
12468;BME280;57850;52.922;6.256;2023-05-27T07:58:37;103154.44;;;17.82;100.00
12468;BME280;57850;52.922;6.256;2023-05-27T08:01:03;103165.13;;;17.76;100.00
12468;BME280;57850;52.922;6.256;2023-05-27T08:03:30;103154.47;;;17.81;100.00
12468;BME280;57850;52.922;6.256;2023-05-27T08:05:56;103156.91;;;17.87;100.00
12468;BME280;57850;52.922;6.256;2023-05-27T08:08:23;103146.81;;;18.01;100.00
12468;BME280;57850;52.922;6.256;2023-05-27T08:10:49;103136.09;;;18.33;100.00
12468;BME280;57850;52.922;6.256;2023-05-27T08:13:18;103118.88;;;18.76;100.00
12468;BME280;57850;52.922;6.256;2023-05-27T08:15:44;103118.00;;;18.75;100.00
12468;BME280;57850;52.922;6.256;2023-05-27T08:18:12;103126.78;;;18.49;100.00
12468;BME280;57850;52.922;6.256;2023-05-27T08:20:38;103113.56;;;18.76;100.00
12468;BME280;57850;52.922;6.256;2023-05-27T08:23:05;103100.03;;;19.09;100.00
12468;BME280;57850;52.922;6.256;2023-05-27T08:25:32;103106.34;;;18.81;100.00
12468;BME280;57850;52.922;6.256;2023-05-27T08:27:59;103094.47;;;19.17;100.00
12468;BME280;57850;52.922;6.256;2023-05-27T08:30:29;103095.06;;;19.00;100.00
12468;BME280;57850;52.922;6.256;2023-05-27T08:32:56;103091.88;;;18.91;100.00
12468;BME280;57850;52.922;6.256;2023-05-27T08:35:22;103088.44;;;19.13;100.00
12468;BME280;57850;52.922;6.256;2023-05-27T08:37:49;103083.78;;;19.20;100.00
12468;BME280;57850;52.922;6.256;2023-05-27T08:40:17;103080.41;;;19.15;100.00
12468;BME280;57850;52.922;6.256;2023-05-27T08:42:45;103081.53;;;19.33;100.00
12468;BME280;57850;52.922;6.256;2023-05-27T08:45:12;103089.22;;;18.66;100.00
12468;BME280;57850;52.922;6.256;2023-05-27T08:47:40;103078.16;;;19.04;100.00
12468;BME280;57850;52.922;6.256;2023-05-27T08:50:08;103070.88;;;19.34;100.00
12468;BME280;57850;52.922;6.256;2023-05-27T08:52:38;103074.81;;;18.75;100.00
12468;BME280;57850;52.922;6.256;2023-05-27T08:55:07;103040.72;;;19.61;100.00
12468;BME280;57850;52.922;6.256;2023-05-27T08:57:35;103033.78;;;19.81;100.00
12468;BME280;57850;52.922;6.256;2023-05-27T09:00:03;103041.91;;;19.54;100.00
12468;BME280;57850;52.922;6.256;2023-05-27T09:02:40;103043.19;;;19.19;100.00
12468;BME280;57850;52.922;6.256;2023-05-27T09:05:07;103045.06;;;19.41;100.00
12468;BME280;57850;52.922;6.256;2023-05-27T09:07:35;103013.94;;;20.12;100.00
12468;BME280;57850;52.922;6.256;2023-05-27T09:10:04;103018.13;;;20.18;100.00
12468;BME280;57850;52.922;6.256;2023-05-27T09:12:33;103056.78;;;19.34;100.00
12468;BME280;57850;52.922;6.256;2023-05-27T09:14:59;103032.63;;;19.88;100.00
12468;BME280;57850;52.922;6.256;2023-05-27T09:17:26;103010.41;;;20.12;100.00
12468;BME280;57850;52.922;6.256;2023-05-27T09:19:54;103015.34;;;19.99;100.00
12468;BME280;57850;52.922;6.256;2023-05-27T09:22:21;103002.81;;;20.26;100.00
12468;BME280;57850;52.922;6.256;2023-05-27T09:24:49;102966.09;;;21.15;100.00
12468;BME280;57850;52.922;6.256;2023-05-27T09:27:15;102955.75;;;21.46;100.00
12468;BME280;57850;52.922;6.256;2023-05-27T09:29:42;102929.66;;;21.73;100.00
12468;BME280;57850;52.922;6.256;2023-05-27T09:32:08;102962.19;;;21.03;100.00
12468;BME280;57850;52.922;6.256;2023-05-27T09:34:38;102922.97;;;22.00;100.00
12468;BME280;57850;52.922;6.256;2023-05-27T09:37:12;102921.94;;;22.03;100.00
12468;BME280;57850;52.922;6.256;2023-05-27T09:39:39;102964.59;;;20.50;100.00
12468;BME280;57850;52.922;6.256;2023-05-27T09:42:05;103001.84;;;20.05;100.00
12468;BME280;57850;52.922;6.256;2023-05-27T09:44:35;102985.03;;;20.48;100.00
12468;BME280;57850;52.922;6.256;2023-05-27T09:47:07;102946.91;;;21.64;100.00
12468;BME280;57850;52.922;6.256;2023-05-27T09:49:37;102918.75;;;22.13;100.00
12468;BME280;57850;52.922;6.256;2023-05-27T09:52:06;102891.66;;;22.72;100.00
12468;BME280;57850;52.922;6.256;2023-05-27T09:54:34;102861.13;;;23.11;100.00
12468;BME280;57850;52.922;6.256;2023-05-27T09:57:03;102873.31;;;23.15;100.00
12468;BME280;57850;52.922;6.256;2023-05-27T09:59:31;102847.28;;;23.65;100.00
12468;BME280;57850;52.922;6.256;2023-05-27T10:02:00;102788.22;;;24.58;100.00
12468;BME280;57850;52.922;6.256;2023-05-27T10:04:27;102812.91;;;24.19;100.00
12468;BME280;57850;52.922;6.256;2023-05-27T10:06:53;102781.22;;;24.14;100.00
12468;BME280;57850;52.922;6.256;2023-05-27T10:09:21;102750.91;;;25.24;100.00
12468;BME280;57850;52.922;6.256;2023-05-27T10:11:49;102772.09;;;24.59;100.00
12468;BME280;57850;52.922;6.256;2023-05-27T10:14:16;102753.66;;;25.22;100.00
12468;BME280;57850;52.922;6.256;2023-05-27T10:16:51;102763.41;;;24.84;100.00
12468;BME280;57850;52.922;6.256;2023-05-27T10:19:18;102812.91;;;24.05;100.00
12468;BME280;57850;52.922;6.256;2023-05-27T10:21:45;102764.69;;;25.70;100.00
12468;BME280;57850;52.922;6.256;2023-05-27T10:24:12;102750.38;;;24.92;100.00
12468;BME280;57850;52.922;6.256;2023-05-27T10:26:41;102755.84;;;25.42;100.00
12468;BME280;57850;52.922;6.256;2023-05-27T10:29:09;102688.34;;;26.27;97.71
12468;BME280;57850;52.922;6.256;2023-05-27T10:31:44;102711.47;;;25.40;97.75
12468;BME280;57850;52.922;6.256;2023-05-27T10:34:11;102671.53;;;26.73;99.09
12468;BME280;57850;52.922;6.256;2023-05-27T10:36:38;102646.00;;;27.14;98.10
12468;BME280;57850;52.922;6.256;2023-05-27T10:39:11;102649.81;;;26.88;96.79
12468;BME280;57850;52.922;6.256;2023-05-27T10:41:40;102650.72;;;26.76;96.11
12468;BME280;57850;52.922;6.256;2023-05-27T10:44:07;102625.03;;;27.08;95.38
12468;BME280;57850;52.922;6.256;2023-05-27T10:46:38;102662.69;;;25.99;95.26
12468;BME280;57850;52.922;6.256;2023-05-27T10:49:10;102631.53;;;27.28;95.44
12468;BME280;57850;52.922;6.256;2023-05-27T10:51:38;102618.38;;;27.36;94.58
12468;BME280;57850;52.922;6.256;2023-05-27T10:54:05;102689.84;;;25.05;94.28
12468;BME280;57850;52.922;6.256;2023-05-27T10:56:32;102630.41;;;27.20;94.94
12468;BME280;57850;52.922;6.256;2023-05-27T10:59:01;102596.81;;;27.71;93.84
12468;BME280;57850;52.922;6.256;2023-05-27T11:01:31;102588.50;;;27.85;92.23
12468;BME280;57850;52.922;6.256;2023-05-27T11:03:59;102565.16;;;28.08;92.10
12468;BME280;57850;52.922;6.256;2023-05-27T11:06:25;102573.03;;;27.66;89.12
12468;BME280;57850;52.922;6.256;2023-05-27T11:08:52;102561.41;;;27.88;91.29
12468;BME280;57850;52.922;6.256;2023-05-27T11:11:18;102599.81;;;26.18;90.59
12468;BME280;57850;52.922;6.256;2023-05-27T11:13:46;102547.16;;;27.88;93.05
12468;BME280;57850;52.922;6.256;2023-05-27T11:16:15;102519.97;;;28.86;90.90
12468;BME280;57850;52.922;6.256;2023-05-27T11:18:42;102487.03;;;29.73;87.22
12468;BME280;57850;52.922;6.256;2023-05-27T11:21:11;102489.22;;;29.30;88.41
12468;BME280;57850;52.922;6.256;2023-05-27T11:23:40;102504.81;;;28.76;87.96
12468;BME280;57850;52.922;6.256;2023-05-27T11:26:13;102511.06;;;28.44;88.59
12468;BME280;57850;52.922;6.256;2023-05-27T11:28:45;102485.41;;;28.72;88.52
12468;BME280;57850;52.922;6.256;2023-05-27T11:31:13;102491.94;;;28.79;85.72
12468;BME280;57850;52.922;6.256;2023-05-27T11:33:40;102534.50;;;27.23;87.18
12468;BME280;57850;52.922;6.256;2023-05-27T11:36:10;102508.41;;;28.01;87.08
12468;BME280;57850;52.922;6.256;2023-05-27T11:38:50;102474.75;;;28.91;86.32
12468;BME280;57850;52.922;6.256;2023-05-27T11:41:17;102509.34;;;27.91;86.28
12468;BME280;57850;52.922;6.256;2023-05-27T11:43:48;102515.00;;;27.10;89.22
12468;BME280;57850;52.922;6.256;2023-05-27T11:46:16;102485.63;;;28.48;85.84
12468;BME280;57850;52.922;6.256;2023-05-27T11:48:43;102470.84;;;29.05;82.44
12468;BME280;57850;52.922;6.256;2023-05-27T11:51:10;102417.94;;;30.12;82.51
12468;BME280;57850;52.922;6.256;2023-05-27T11:53:38;102423.91;;;29.87;82.70
12468;BME280;57850;52.922;6.256;2023-05-27T11:56:05;102393.19;;;30.46;82.86
12468;BME280;57850;52.922;6.256;2023-05-27T11:58:32;102426.19;;;29.82;82.20
12468;BME280;57850;52.922;6.256;2023-05-27T12:00:59;102457.94;;;28.99;79.18
12468;BME280;57850;52.922;6.256;2023-05-27T12:03:27;102461.94;;;28.33;83.06
12468;BME280;57850;52.922;6.256;2023-05-27T12:05:53;102472.50;;;27.50;82.68
12468;BME280;57850;52.922;6.256;2023-05-27T12:08:20;102390.72;;;29.58;81.93
12468;BME280;57850;52.922;6.256;2023-05-27T12:10:46;102383.06;;;29.92;81.33
12468;BME280;57850;52.922;6.256;2023-05-27T12:13:15;102382.50;;;29.79;82.23
12468;BME280;57850;52.922;6.256;2023-05-27T12:15:42;102378.25;;;29.57;83.71
12468;BME280;57850;52.922;6.256;2023-05-27T12:18:08;102360.09;;;30.16;83.55
12468;BME280;57850;52.922;6.256;2023-05-27T12:20:36;102353.94;;;30.34;81.66
12468;BME280;57850;52.922;6.256;2023-05-27T12:23:03;102416.81;;;28.57;81.61
12468;BME280;57850;52.922;6.256;2023-05-27T12:25:30;102350.44;;;30.14;81.83
12468;BME280;57850;52.922;6.256;2023-05-27T12:27:57;102351.78;;;29.91;81.87
12468;BME280;57850;52.922;6.256;2023-05-27T12:30:24;102363.94;;;29.75;80.25
12468;BME280;57850;52.922;6.256;2023-05-27T12:32:50;102356.09;;;30.11;80.71
12468;BME280;57850;52.922;6.256;2023-05-27T12:35:17;102354.88;;;29.86;80.49
12468;BME280;57850;52.922;6.256;2023-05-27T12:37:45;102336.84;;;30.15;78.99
12468;BME280;57850;52.922;6.256;2023-05-27T12:40:11;102384.41;;;28.49;80.00
12468;BME280;57850;52.922;6.256;2023-05-27T12:42:39;102400.94;;;28.03;80.23
12468;BME280;57850;52.922;6.256;2023-05-27T12:45:08;102388.00;;;27.76;81.88
12468;BME280;57850;52.922;6.256;2023-05-27T12:47:34;102343.84;;;29.51;80.50